Time;durP1;ratioP1;P1;durP2;ratioP2;P2;SDS_P1;SDS_P2;PMS_P1;PMS_P2;Temp;Humidity;BMP_temperature;BMP_pressure;BME280_temperature;BME280_humidity;BME280_pressure;Samples;Min_cycle;Max_cycle;Signal;HPM_P1;HPM_P2
2021/04/14 00:00:37;;;;;;;9.46;7.42;;;;;;;-1.79;100.00;96987.38;1016370;29;20249;-49
2021/04/14 00:01:08;;;;;;;11.04;7.34;;;;;;;-1.78;100.00;96976.25;1016221;29;20108;-50
2021/04/14 00:01:40;;;;;;;11.84;7.12;;;;;;;-1.78;100.00;96975.41;1023943;29;20082;-49
2021/04/14 00:02:10;;;;;;;9.32;6.60;;;;;;;-1.81;100.00;96977.97;1012351;29;20033;-48
2021/04/14 00:02:41;;;;;;;12.75;7.55;;;;;;;-1.81;100.00;96973.69;1016279;29;20048;-48
2021/04/14 00:03:17;;;;;;;9.80;6.68;;;;;;;-1.82;100.00;96982.28;1016226;29;20028;-49
2021/04/14 00:03:48;;;;;;;9.92;7.74;;;;;;;-1.81;100.00;96972.84;1019897;29;20038;-49
2021/04/14 00:04:19;;;;;;;11.52;7.80;;;;;;;-1.82;100.00;96977.13;1016207;29;20028;-48
2021/04/14 00:04:50;;;;;;;10.80;7.78;;;;;;;-1.81;100.00;96970.28;1012307;29;20478;-49
2021/04/14 00:05:22;;;;;;;9.40;8.30;;;;;;;-1.82;100.00;96977.13;1016241;29;20027;-50
2021/04/14 00:05:53;;;;;;;9.98;7.75;;;;;;;-1.84;100.00;96975.41;1016114;29;20634;-49
2021/04/14 00:06:24;;;;;;;10.75;7.70;;;;;;;-1.83;100.00;96985.69;1012311;29;20252;-50
2021/04/14 00:06:56;;;;;;;10.52;7.88;;;;;;;-1.83;100.00;96974.56;1012255;29;20257;-49
2021/04/14 00:07:27;;;;;;;12.40;8.52;;;;;;;-1.84;100.00;96978.88;1016229;29;20261;-50
2021/04/14 00:07:59;;;;;;;10.77;7.28;;;;;;;-1.82;100.00;96974.56;1012263;29;20036;-49
2021/04/14 00:08:30;;;;;;;13.40;8.35;;;;;;;-1.81;100.00;96976.25;1020169;29;20015;-47
2021/04/14 00:09:02;;;;;;;11.90;8.38;;;;;;;-1.81;100.00;96978.84;1020206;29;20283;-49
2021/04/14 00:09:33;;;;;;;10.82;8.00;;;;;;;-1.81;100.00;96976.25;1016293;29;20248;-49
2021/04/14 00:10:05;;;;;;;10.84;8.56;;;;;;;-1.81;100.00;96980.56;1012201;29;20522;-49
2021/04/14 00:10:37;;;;;;;12.05;8.73;;;;;;;-1.82;100.00;96981.41;1020137;29;20124;-49
2021/04/14 00:11:13;;;;;;;12.50;8.55;;;;;;;-1.85;100.00;96973.72;1016086;29;20268;-48
2021/04/14 00:11:44;;;;;;;12.45;7.90;;;;;;;-1.81;100.00;96975.41;1016244;29;20782;-51
2021/04/14 00:12:15;;;;;;;10.50;7.90;;;;;;;-1.85;100.00;96974.56;1020159;29;20327;-51
2021/04/14 00:12:46;;;;;;;11.18;8.40;;;;;;;-1.84;100.00;96978.00;1017169;29;20028;-48
2021/04/14 00:13:19;;;;;;;11.15;7.85;;;;;;;-1.86;100.00;96974.56;1012307;29;20040;-51
2021/04/14 00:13:50;;;;;;;10.10;7.76;;;;;;;-1.89;100.00;96970.31;1004280;29;20281;-49
2021/04/14 00:14:21;;;;;;;10.16;7.94;;;;;;;-1.90;100.00;96972.88;1004495;29;20116;-50
2021/04/14 00:14:52;;;;;;;13.90;8.75;;;;;;;-1.92;100.00;96969.47;1008386;29;20028;-49
2021/04/14 00:15:27;;;;;;;10.10;7.82;;;;;;;-1.89;100.00;96972.03;1016072;29;20024;-48
2021/04/14 00:15:58;;;;;;;12.82;8.63;;;;;;;-1.85;100.00;96977.16;1012211;29;20021;-49
2021/04/14 00:16:29;;;;;;;9.22;7.46;;;;;;;-1.87;100.00;96971.16;1008315;29;20774;-48
2021/04/14 00:17:00;;;;;;;11.07;8.00;;;;;;;-1.88;100.00;96973.72;1016288;29;20039;-49
2021/04/14 00:17:31;;;;;;;11.52;8.98;;;;;;;-1.90;100.00;96973.72;1019419;29;20557;-49
2021/04/14 00:18:02;;;;;;;11.55;8.07;;;;;;;-1.91;100.00;96973.78;1012059;29;20465;-50
2021/04/14 00:18:32;;;;;;;11.93;8.52;;;;;;;-1.92;100.00;96972.88;1020060;29;20512;-49
2021/04/14 00:19:03;;;;;;;10.75;8.07;;;;;;;-1.93;100.00;96973.78;1016149;29;20256;-49
2021/04/14 00:19:34;;;;;;;11.55;8.68;;;;;;;-1.91;100.00;96974.63;1016230;29;20020;-48
2021/04/14 00:20:07;;;;;;;10.73;7.95;;;;;;;-1.91;100.00;96974.63;1020044;29;20062;-49
2021/04/14 00:20:38;;;;;;;12.45;7.93;;;;;;;-1.97;100.00;96964.38;1012218;29;20554;-49
2021/04/14 00:21:09;;;;;;;11.27;8.38;;;;;;;-1.95;100.00;96970.34;1012288;29;20335;-49
2021/04/14 00:21:40;;;;;;;11.45;8.90;;;;;;;-1.97;100.00;96966.94;1012134;29;20025;-49
2021/04/14 00:22:11;;;;;;;14.05;9.07;;;;;;;-1.95;100.00;96972.94;1016119;29;20296;-51
2021/04/14 00:22:42;;;;;;;11.77;8.40;;;;;;;-1.93;100.00;96973.78;1019991;29;20024;-50
2021/04/14 00:23:13;;;;;;;12.32;8.98;;;;;;;-1.94;100.00;96972.06;1020049;29;20489;-50
2021/04/14 00:23:44;;;;;;;11.60;8.45;;;;;;;-1.94;100.00;96976.34;1015922;29;20103;-50
2021/04/14 00:24:16;;;;;;;14.98;8.45;;;;;;;-1.96;100.00;96971.19;1020139;29;20295;-48
2021/04/14 00:24:47;;;;;;;12.95;9.80;;;;;;;-1.95;100.00;96970.34;1012151;29;20280;-50
2021/04/14 00:25:22;;;;;;;12.07;8.70;;;;;;;-1.97;100.00;96972.09;1012232;29;20272;-49
2021/04/14 00:25:54;;;;;;;11.00;8.52;;;;;;;-1.95;100.00;96970.34;1016205;29;20466;-50
2021/04/14 00:26:25;;;;;;;15.15;8.68;;;;;;;-1.93;100.00;96968.63;1008274;29;20037;-49
2021/04/14 00:26:56;;;;;;;13.48;9.14;;;;;;;-1.91;100.00;96972.03;1009230;29;20337;-50
2021/04/14 00:27:27;;;;;;;12.38;8.78;;;;;;;-1.90;100.00;96972.88;1004904;29;20040;-48
2021/04/14 00:27:58;;;;;;;12.80;8.78;;;;;;;-1.89;100.00;96970.31;1012513;29;20027;-49
2021/04/14 00:28:29;;;;;;;12.27;9.40;;;;;;;-1.88;100.00;96964.31;1020043;29;20091;-48
2021/04/14 00:29:00;;;;;;;10.98;8.60;;;;;;;-1.85;100.00;96969.44;1016057;29;20331;-50
2021/04/14 00:29:31;;;;;;;10.98;8.35;;;;;;;-1.84;100.00;96967.72;1016317;29;20028;-49
2021/04/14 00:30:05;;;;;;;11.52;8.40;;;;;;;-1.84;100.00;96960.88;1016082;29;20048;-50
2021/04/14 00:30:36;;;;;;;13.70;10.24;;;;;;;-1.81;100.00;96968.56;1012136;29;20312;-50
2021/04/14 00:31:07;;;;;;;11.48;8.23;;;;;;;-1.78;100.00;96973.69;1008512;29;20085;-49
2021/04/14 00:31:38;;;;;;;13.24;8.96;;;;;;;-1.80;100.00;96969.44;1012292;29;20269;-49
2021/04/14 00:32:09;;;;;;;12.20;9.35;;;;;;;-1.80;100.00;96962.56;1020138;29;20059;-49
2021/04/14 00:32:40;;;;;;;13.78;8.70;;;;;;;-1.83;100.00;96972.84;1012144;29;20020;-50
2021/04/14 00:33:12;;;;;;;11.88;8.98;;;;;;;-1.82;100.00;96974.56;1008457;29;20369;-49
2021/04/14 00:33:43;;;;;;;13.38;9.34;;;;;;;-1.84;100.00;96966.03;1015860;29;20874;-49
2021/04/14 00:34:17;;;;;;;12.45;9.15;;;;;;;-1.77;100.00;96964.25;1012251;29;20096;-48
2021/04/14 00:34:48;;;;;;;10.66;8.74;;;;;;;-1.79;100.00;96968.56;1008219;29;20025;-50
2021/04/14 00:35:20;;;;;;;10.50;8.75;;;;;;;-1.79;100.00;96969.41;1008300;29;20436;-49
2021/04/14 00:35:50;;;;;;;12.66;8.76;;;;;;;-1.79;100.00;96964.25;1012946;29;20031;-50
2021/04/14 00:36:22;;;;;;;13.60;9.48;;;;;;;-1.76;100.00;96966.81;1016139;29;20051;-49
2021/04/14 00:36:53;;;;;;;11.54;8.58;;;;;;;-1.75;100.00;96962.53;1016030;29;20054;-51
2021/04/14 00:37:24;;;;;;;12.00;8.60;;;;;;;-1.72;100.00;96966.81;1020109;29;20020;-49
2021/04/14 00:37:55;;;;;;;12.65;8.35;;;;;;;-1.73;100.00;96965.94;1019943;29;20259;-49
2021/04/14 00:38:25;;;;;;;11.15;8.57;;;;;;;-1.76;100.00;96964.25;1016129;29;20084;-48
2021/04/14 00:38:56;;;;;;;13.55;8.85;;;;;;;-1.67;100.00;96968.50;1015869;29;20265;-49
2021/04/14 00:39:27;;;;;;;12.73;9.43;;;;;;;-1.65;100.00;96964.19;1016205;29;20024;-49
2021/04/14 00:39:58;;;;;;;13.50;9.07;;;;;;;-1.60;100.00;96966.72;1016175;29;20542;-49
2021/04/14 00:40:31;;;;;;;12.60;8.95;;;;;;;-1.64;100.00;96968.47;1020122;29;20024;-49
2021/04/14 00:41:04;;;;;;;11.16;8.56;;;;;;;-1.57;100.00;96977.84;1012087;29;20020;-49
2021/04/14 00:41:35;;;;;;;9.64;7.40;;;;;;;-1.54;100.00;96970.97;1016125;29;20043;-48
2021/04/14 00:42:07;;;;;;;12.52;8.60;;;;;;;-1.54;100.00;96976.97;1012127;29;20083;-50
2021/04/14 00:42:38;;;;;;;14.55;8.60;;;;;;;-1.54;100.00;96973.56;1012195;29;20471;-49
2021/04/14 00:43:19;;;;;;;11.30;9.07;;;;;;;-1.55;100.00;96966.72;1012013;29;20272;-49
2021/04/14 00:43:50;;;;;;;11.76;8.10;;;;;;;-1.54;100.00;96960.69;1015890;29;20245;-48
2021/04/14 00:44:21;;;;;;;9.90;7.53;;;;;;;-1.54;100.00;96970.97;1012200;29;20052;-49
2021/04/14 00:44:51;;;;;;;12.05;7.43;;;;;;;-1.51;100.00;96961.53;1016091;29;20012;-49
2021/04/14 00:45:22;;;;;;;10.75;7.82;;;;;;;-1.48;100.00;96973.50;1015892;29;20336;-50
2021/04/14 00:45:53;;;;;;;10.85;8.07;;;;;;;-1.44;100.00;96960.63;1016209;29;20514;-49
2021/04/14 00:46:24;;;;;;;9.45;7.30;;;;;;;-1.42;100.00;96958.91;1016079;29;20260;-50
2021/04/14 00:46:55;;;;;;;11.75;7.22;;;;;;;-1.40;100.00;96959.75;1020038;29;20046;-49
2021/04/14 00:47:26;;;;;;;9.32;6.97;;;;;;;-1.37;100.00;96958.88;1019848;29;20434;-49
2021/04/14 00:47:56;;;;;;;10.10;7.90;;;;;;;-1.37;100.00;96961.44;1016255;29;20038;-50
2021/04/14 00:48:27;;;;;;;9.88;7.45;;;;;;;-1.40;100.00;96962.31;1012176;29;20025;-50
2021/04/14 00:48:58;;;;;;;8.30;7.13;;;;;;;-1.37;100.00;96962.31;1016110;29;20314;-49
2021/04/14 00:49:29;;;;;;;11.75;7.72;;;;;;;-1.34;100.00;96958.00;1016042;29;20355;-49
2021/04/14 00:50:00;;;;;;;10.52;6.93;;;;;;;-1.33;100.00;96964.84;1012169;29;20079;-48
2021/04/14 00:50:30;;;;;;;9.65;7.30;;;;;;;-1.29;100.00;96956.25;1019995;29;20020;-51
2021/04/14 00:51:01;;;;;;;9.75;7.32;;;;;;;-1.27;100.00;96965.66;1012123;29;20020;-48
2021/04/14 00:51:33;;;;;;;8.43;6.65;;;;;;;-1.27;100.00;96963.09;1012118;29;20076;-49
2021/04/14 00:52:04;;;;;;;9.25;6.75;;;;;;;-1.29;100.00;96962.25;1023920;29;20043;-49
2021/04/14 00:52:35;;;;;;;10.25;7.35;;;;;;;-1.26;100.00;96966.50;1016047;29;20339;-48
2021/04/14 00:53:07;;;;;;;9.10;7.13;;;;;;;-1.26;100.00;96959.66;1016035;29;20260;-49
2021/04/14 00:53:38;;;;;;;10.00;7.32;;;;;;;-1.26;100.00;96956.22;1015717;29;20019;-48
2021/04/14 00:54:11;;;;;;;9.02;7.03;;;;;;;-1.28;100.00;96956.22;1019967;29;20263;-49
2021/04/14 00:54:41;;;;;;;9.35;6.63;;;;;;;-1.27;100.00;96955.38;1012164;29;20096;-49
2021/04/14 00:55:14;;;;;;;9.88;7.22;;;;;;;-1.27;100.00;96964.81;1016010;29;20257;-49
2021/04/14 00:55:45;;;;;;;8.68;6.25;;;;;;;-1.24;100.00;96957.94;1015965;29;20310;-49
2021/04/14 00:56:16;;;;;;;8.75;6.50;;;;;;;-1.22;100.00;96961.34;1016287;29;20761;-47
2021/04/14 00:56:46;;;;;;;10.82;6.90;;;;;;;-1.24;100.00;96957.94;1016114;29;20256;-50
2021/04/14 00:57:17;;;;;;;10.07;7.47;;;;;;;-1.23;100.00;96958.78;1019975;29;20018;-49
2021/04/14 00:57:48;;;;;;;10.00;7.30;;;;;;;-1.28;100.00;96950.25;1015827;29;20023;-48
2021/04/14 00:58:19;;;;;;;9.77;7.13;;;;;;;-1.27;100.00;96954.53;1015959;29;20307;-50
2021/04/14 00:58:50;;;;;;;8.80;7.00;;;;;;;-1.29;100.00;96948.56;1015980;29;20012;-50
2021/04/14 00:59:21;;;;;;;9.95;7.97;;;;;;;-1.29;100.00;96958.84;1016042;29;20183;-51
2021/04/14 00:59:52;;;;;;;9.73;7.35;;;;;;;-1.32;100.00;96954.53;1008215;29;20025;-50
2021/04/14 01:00:32;;;;;;;9.90;7.07;;;;;;;-1.37;100.00;96954.59;1008387;29;20088;-49
2021/04/14 01:01:03;;;;;;;11.40;7.95;;;;;;;-1.35;100.00;96951.16;1008296;29;20017;-50
2021/04/14 01:01:34;;;;;;;9.35;7.57;;;;;;;-1.30;100.00;96957.13;1015963;29;20738;-48
2021/04/14 01:02:05;;;;;;;9.02;6.90;;;;;;;-1.30;100.00;96957.13;1015881;29;20098;-50
2021/04/14 01:02:36;;;;;;;10.95;7.07;;;;;;;-1.28;100.00;96955.38;1012085;29;20080;-48
2021/04/14 01:03:12;;;;;;;11.20;7.07;;;;;;;-1.26;100.00;96951.09;1008238;29;20269;-51
2021/04/14 01:03:43;;;;;;;9.20;7.28;;;;;;;-1.23;100.00;96945.94;1011941;29;20087;-50
2021/04/14 01:04:13;;;;;;;8.63;6.47;;;;;;;-1.22;100.00;96953.63;1019794;29;20334;-49
2021/04/14 01:04:44;;;;;;;8.63;6.78;;;;;;;-1.22;100.00;96950.19;1016087;29;20030;-49
2021/04/14 01:05:16;;;;;;;8.07;6.63;;;;;;;-1.22;100.00;96953.63;1016059;29;20028;-48
2021/04/14 01:05:48;;;;;;;10.55;7.75;;;;;;;-1.21;100.00;96946.75;1016409;29;20056;-49
2021/04/14 01:06:22;;;;;;;9.98;7.03;;;;;;;-1.20;100.00;96945.91;1016412;29;20268;-48
2021/04/14 01:06:53;;;;;;;8.95;6.90;;;;;;;-1.20;100.00;96948.47;1017043;29;20283;-51
2021/04/14 01:07:24;;;;;;;9.90;7.78;;;;;;;-1.22;100.00;96953.63;1015959;29;20264;-50
2021/04/14 01:07:55;;;;;;;9.70;7.65;;;;;;;-1.25;100.00;96951.06;1016102;29;20484;-49
2021/04/14 01:08:26;;;;;;;9.38;7.57;;;;;;;-1.36;100.00;96942.59;1008188;29;20064;-49
2021/04/14 01:08:58;;;;;;;9.48;7.95;;;;;;;-1.32;100.00;96948.56;1012112;29;20071;-49
2021/04/14 01:09:29;;;;;;;10.95;7.43;;;;;;;-1.31;100.00;96947.72;1016030;29;20270;-50
2021/04/14 01:09:59;;;;;;;8.70;7.05;;;;;;;-1.32;100.00;96949.41;1012148;29;20255;-50
2021/04/14 01:10:30;;;;;;;11.00;7.88;;;;;;;-1.34;100.00;96942.59;1019879;29;20027;-49
2021/04/14 01:11:01;;;;;;;11.02;7.53;;;;;;;-1.34;100.00;96945.16;1019871;29;20067;-49
2021/04/14 01:11:32;;;;;;;10.23;7.18;;;;;;;-1.39;100.00;96938.34;1023756;29;20022;-50
2021/04/14 01:12:03;;;;;;;11.38;7.45;;;;;;;-1.41;100.00;96945.22;1020021;29;20023;-49
2021/04/14 01:12:34;;;;;;;14.75;8.77;;;;;;;-1.43;100.00;96939.19;1015820;29;20024;-50
2021/04/14 01:13:05;;;;;;;11.18;8.02;;;;;;;-1.40;100.00;96946.06;1015956;29;20359;-50
2021/04/14 01:13:35;;;;;;;11.55;8.23;;;;;;;-1.36;100.00;96945.16;1012127;29;20709;-49
2021/04/14 01:14:07;;;;;;;9.85;7.65;;;;;;;-1.37;100.00;96946.88;1012209;29;20506;-50
2021/04/14 01:14:38;;;;;;;10.00;7.15;;;;;;;-1.43;100.00;96934.06;1008106;29;20032;-49
2021/04/14 01:15:10;;;;;;;10.82;8.07;;;;;;;-1.38;100.00;96934.88;1012030;29;20312;-49
2021/04/14 01:15:44;;;;;;;11.13;7.88;;;;;;;-1.39;100.00;96938.34;1012040;29;20056;-49
2021/04/14 01:16:15;;;;;;;11.57;7.78;;;;;;;-1.32;100.00;96938.28;1012066;29;20265;-49
2021/04/14 01:16:46;;;;;;;11.65;9.77;;;;;;;-1.33;100.00;96940.00;1015988;29;20674;-50
2021/04/14 01:17:17;;;;;;;10.10;6.95;;;;;;;-1.32;100.00;96933.13;1016068;29;20023;-49
2021/04/14 01:17:48;;;;;;;11.00;7.93;;;;;;;-1.30;100.00;96936.53;1016088;29;20111;-50
2021/04/14 01:18:22;;;;;;;9.68;7.28;;;;;;;-1.34;100.00;96935.72;1012089;29;20017;-49
2021/04/14 01:18:53;;;;;;;11.18;7.80;;;;;;;-1.34;100.00;96938.28;1011989;29;20422;-49
2021/04/14 01:19:23;;;;;;;10.70;8.18;;;;;;;-1.43;100.00;96918.63;1012060;29;20253;-50
2021/04/14 01:19:54;;;;;;;12.30;7.63;;;;;;;-1.33;100.00;96934.88;1012236;29;20029;-49
2021/04/14 01:20:25;;;;;;;10.63;8.02;;;;;;;-1.32;100.00;96936.56;1012083;29;20037;-48
2021/04/14 01:20:56;;;;;;;11.32;8.70;;;;;;;-1.27;100.00;96931.41;1019767;29;20019;-51
2021/04/14 01:21:39;;;;;;;11.30;8.48;;;;;;;-1.27;100.00;96933.97;1015966;29;20303;-48
2021/04/14 01:22:09;;;;;;;11.95;7.95;;;;;;;-1.37;100.00;96936.59;1004345;29;20350;-48
2021/04/14 01:22:40;;;;;;;11.05;7.88;;;;;;;-1.43;100.00;96936.63;1011990;29;20803;-50
2021/04/14 01:23:11;;;;;;;11.63;7.95;;;;;;;-1.42;100.00;96934.94;1019856;29;20031;-48
2021/04/14 01:23:42;;;;;;;10.73;8.82;;;;;;;-1.43;100.00;96938.34;1011892;29;20111;-49
2021/04/14 01:24:14;;;;;;;18.20;9.13;;;;;;;-1.43;100.00;96935.78;1012001;29;20073;-49
2021/04/14 01:24:45;;;;;;;12.18;8.95;;;;;;;-1.41;100.00;96941.75;1012112;29;20065;-49
2021/04/14 01:25:21;;;;;;;12.77;9.88;;;;;;;-1.48;100.00;96940.97;1019781;29;20762;-51
2021/04/14 01:25:52;;;;;;;13.13;9.02;;;;;;;-1.53;100.00;96939.28;1019861;29;20126;-50
2021/04/14 01:26:23;;;;;;;10.68;8.38;;;;;;;-1.49;100.00;96939.25;1019953;29;20274;-48
2021/04/14 01:26:54;;;;;;;12.48;9.15;;;;;;;-1.48;100.00;96940.09;1019613;29;20031;-49
2021/04/14 01:27:25;;;;;;;12.10;9.13;;;;;;;-1.50;100.00;96939.25;1012013;29;20495;-50
2021/04/14 01:27:56;;;;;;;11.20;8.77;;;;;;;-1.47;100.00;96934.94;1015966;29;20055;-49
2021/04/14 01:28:37;;;;;;;12.00;8.68;;;;;;;-1.46;100.00;96935.81;1012050;29;20486;-49
2021/04/14 01:29:10;;;;;;;12.52;8.75;;;;;;;-1.47;100.00;96934.94;1019578;29;20047;-48
2021/04/14 01:29:41;;;;;;;12.30;8.52;;;;;;;-1.42;100.00;96940.06;1019783;29;20274;-49
2021/04/14 01:30:17;;;;;;;13.75;10.20;;;;;;;-1.45;100.00;96934.94;1012079;29;20272;-51
2021/04/14 01:30:48;;;;;;;12.85;9.63;;;;;;;-1.49;100.00;96939.25;1012121;29;20566;-48
2021/04/14 01:31:32;;;;;;;10.82;8.93;;;;;;;-1.50;100.00;96939.25;1011949;29;20250;-51
2021/04/14 01:32:04;;;;;;;12.90;9.95;;;;;;;-1.61;100.00;96939.34;1008139;29;20340;-49
2021/04/14 01:32:35;;;;;;;17.30;9.60;;;;;;;-1.58;100.00;96935.03;1012117;29;20275;-48
2021/04/14 01:33:07;;;;;;;11.68;9.32;;;;;;;-1.54;100.00;96940.97;1011890;29;20763;-50
2021/04/14 01:33:38;;;;;;;14.25;9.15;;;;;;;-1.55;100.00;96941.03;1011839;29;20024;-49
2021/04/14 01:34:12;;;;;;;14.43;9.05;;;;;;;-1.55;100.00;96939.28;1012048;29;20289;-49
2021/04/14 01:34:43;;;;;;;12.48;9.43;;;;;;;-1.57;100.00;96939.31;1012053;29;20784;-50
2021/04/14 01:35:14;;;;;;;12.85;9.27;;;;;;;-1.62;100.00;96943.59;1019784;29;20259;-50
2021/04/14 01:35:45;;;;;;;13.85;8.88;;;;;;;-1.67;100.00;96947.06;1015908;29;20506;-50
2021/04/14 01:36:15;;;;;;;17.85;9.20;;;;;;;-1.65;100.00;96943.66;1015840;29;20267;-49
2021/04/14 01:36:47;;;;;;;11.25;9.05;;;;;;;-1.61;100.00;96945.34;1008176;29;20479;-48
2021/04/14 01:37:18;;;;;;;12.90;9.75;;;;;;;-1.57;100.00;96943.59;1008094;29;20021;-49
2021/04/14 01:37:49;;;;;;;13.00;9.45;;;;;;;-1.60;100.00;96947.00;1012115;29;20668;-51
2021/04/14 01:38:19;;;;;;;13.52;9.20;;;;;;;-1.69;100.00;96944.53;1015861;29;20263;-50
2021/04/14 01:38:50;;;;;;;13.20;9.85;;;;;;;-1.65;100.00;96953.03;1019780;29;20267;-49
2021/04/14 01:39:21;;;;;;;14.50;9.95;;;;;;;-1.69;100.00;96952.25;1019764;29;20028;-50
2021/04/14 01:39:52;;;;;;;13.35;9.40;;;;;;;-1.70;100.00;96952.25;1019833;29;20020;-49
2021/04/14 01:40:24;;;;;;;13.77;9.57;;;;;;;-1.72;100.00;96943.69;1011930;29;20025;-50
2021/04/14 01:40:54;;;;;;;12.72;9.56;;;;;;;-1.71;100.00;96945.38;1012031;29;20510;-48
2021/04/14 01:41:26;;;;;;;12.93;9.88;;;;;;;-1.70;100.00;96947.94;1019792;29;20031;-50
2021/04/14 01:41:56;;;;;;;13.88;8.90;;;;;;;-1.67;100.00;96944.50;1023745;29;20023;-49
2021/04/14 01:42:27;;;;;;;11.85;9.05;;;;;;;-1.67;100.00;96944.50;1019671;29;20255;-48
2021/04/14 01:42:58;;;;;;;12.77;8.95;;;;;;;-1.65;100.00;96937.63;1015974;29;20013;-49
2021/04/14 01:43:30;;;;;;;12.15;9.38;;;;;;;-1.65;100.00;96943.66;1019595;29;20047;-49
2021/04/14 01:44:01;;;;;;;12.65;9.05;;;;;;;-1.66;100.00;96941.94;1019749;29;20275;-49
2021/04/14 01:44:32;;;;;;;13.88;8.23;;;;;;;-1.69;100.00;96949.66;1023765;29;20286;-49
2021/04/14 01:45:05;;;;;;;11.38;8.90;;;;;;;-1.74;100.00;96946.28;1011944;29;20317;-51
2021/04/14 01:45:39;;;;;;;14.04;9.26;;;;;;;-1.79;100.00;96938.56;1007904;29;20024;-50
2021/04/14 01:46:10;;;;;;;12.13;9.38;;;;;;;-1.82;100.00;96946.31;1008081;29;20103;-49
2021/04/14 01:46:41;;;;;;;12.13;9.30;;;;;;;-1.82;100.00;96945.44;1011961;29;20938;-49
2021/04/14 01:47:12;;;;;;;12.85;9.90;;;;;;;-1.84;100.00;96949.72;1015836;29;20016;-49
2021/04/14 01:47:42;;;;;;;12.98;8.73;;;;;;;-1.85;100.00;96940.34;1015801;29;20257;-49
2021/04/14 01:48:13;;;;;;;12.23;9.10;;;;;;;-1.84;100.00;96942.03;1015865;29;20394;-51
2021/04/14 01:48:44;;;;;;;12.15;8.30;;;;;;;-1.85;100.00;96937.78;1015796;29;20016;-50
2021/04/14 01:49:14;;;;;;;15.18;8.77;;;;;;;-1.88;100.00;96933.47;1015871;29;20027;-49
2021/04/14 01:49:45;;;;;;;12.27;8.80;;;;;;;-1.97;100.00;96938.69;1011907;29;20048;-51
2021/04/14 01:50:16;;;;;;;13.18;8.68;;;;;;;-1.92;100.00;96941.22;1012069;29;20020;-49
2021/04/14 01:50:47;;;;;;;13.43;9.23;;;;;;;-1.92;100.00;96934.38;1011853;29;20021;-48
2021/04/14 01:51:18;;;;;;;12.55;8.63;;;;;;;-1.85;100.00;96935.19;1008282;29;20050;-50
2021/04/14 01:51:48;;;;;;;11.40;8.40;;;;;;;-1.84;100.00;96934.31;1008538;29;20534;-48
2021/04/14 01:52:19;;;;;;;14.10;9.38;;;;;;;-1.87;100.00;96940.34;1012078;29;20021;-50
2021/04/14 01:52:50;;;;;;;12.82;8.43;;;;;;;-1.87;100.00;96937.78;1015912;29;20020;-49
2021/04/14 01:53:21;;;;;;;12.57;9.27;;;;;;;-1.86;100.00;96938.63;1011911;29;20016;-49
2021/04/14 01:53:51;;;;;;;12.38;8.55;;;;;;;-1.85;100.00;96937.78;1011831;29;20009;-50
2021/04/14 01:54:22;;;;;;;15.95;10.93;;;;;;;-1.86;100.00;96931.78;1015801;29;20499;-48
2021/04/14 01:54:53;;;;;;;11.68;8.20;;;;;;;-1.84;100.00;96936.91;1019689;29;20023;-50
2021/04/14 01:55:24;;;;;;;12.38;8.57;;;;;;;-1.86;100.00;96938.63;1015790;29;20435;-48
2021/04/14 01:55:55;;;;;;;10.90;8.45;;;;;;;-1.90;100.00;96932.63;1019696;29;20016;-51
2021/04/14 01:56:25;;;;;;;11.13;8.43;;;;;;;-1.92;100.00;96934.38;1015788;29;20380;-51
2021/04/14 01:56:56;;;;;;;12.73;9.20;;;;;;;-1.94;100.00;96933.53;1019816;29;20087;-49
2021/04/14 01:57:27;;;;;;;13.52;9.25;;;;;;;-2.01;100.00;96943.00;1015860;29;20060;-48
2021/04/14 01:57:59;;;;;;;13.82;9.98;;;;;;;-2.02;100.00;96945.56;1011935;29;20016;-49
2021/04/14 01:58:31;;;;;;;11.95;9.55;;;;;;;-2.02;100.00;96937.84;1019641;29;20012;-50
2021/04/14 01:59:03;;;;;;;12.43;9.05;;;;;;;-2.02;100.00;96941.28;1019692;29;20863;-51
2021/04/14 01:59:34;;;;;;;14.95;8.65;;;;;;;-2.02;100.00;96937.84;1015862;29;20266;-50
2021/04/14 02:00:14;;;;;;;14.18;8.73;;;;;;;-2.00;100.00;96941.28;1015752;29;20265;-50
2021/04/14 02:00:50;;;;;;;14.00;9.80;;;;;;;-1.98;100.00;96931.84;1012072;29;20515;-48
2021/04/14 02:01:21;;;;;;;13.30;9.46;;;;;;;-2.01;100.00;96940.44;1008075;29;20349;-49
2021/04/14 02:01:52;;;;;;;12.27;9.52;;;;;;;-2.02;100.00;96943.00;1015760;29;20024;-49
2021/04/14 02:02:23;;;;;;;13.23;9.25;;;;;;;-2.03;100.00;96938.69;1008033;29;20032;-48
2021/04/14 02:02:54;;;;;;;11.77;9.20;;;;;;;-2.03;100.00;96936.97;1015701;29;20024;-50
2021/04/14 02:03:28;;;;;;;13.02;8.95;;;;;;;-2.02;100.00;96935.28;1011835;29;20025;-48
2021/04/14 02:03:58;;;;;;;13.23;9.07;;;;;;;-2.02;100.00;96940.44;1015702;29;20028;-49
2021/04/14 02:04:29;;;;;;;12.93;9.43;;;;;;;-2.07;100.00;96926.75;1015925;29;20260;-48
2021/04/14 02:05:00;;;;;;;12.35;8.98;;;;;;;-2.03;100.00;96938.69;1008021;29;20032;-50
2021/04/14 02:05:32;;;;;;;12.35;9.40;;;;;;;-2.04;100.00;96944.72;1011916;29;20079;-49
2021/04/14 02:06:05;;;;;;;13.23;9.45;;;;;;;-2.04;100.00;96943.00;1015745;29;20035;-49
2021/04/14 02:06:36;;;;;;;12.74;9.62;;;;;;;-2.06;100.00;96939.59;1007934;29;20280;-49
2021/04/14 02:07:07;;;;;;;14.25;9.50;;;;;;;-2.03;100.00;96939.56;1008045;29;20032;-49
2021/04/14 02:07:37;;;;;;;10.82;9.35;;;;;;;-2.04;100.00;96934.44;1011930;29;20017;-49
2021/04/14 02:08:08;;;;;;;12.32;9.50;;;;;;;-2.04;100.00;96942.16;1011977;29;20055;-49
2021/04/14 02:08:39;;;;;;;13.50;9.48;;;;;;;-2.03;100.00;96934.41;1011789;29;20032;-49
2021/04/14 02:09:10;;;;;;;13.15;9.80;;;;;;;-2.02;100.00;96936.13;1011856;29;20631;-50
2021/04/14 02:09:41;;;;;;;11.18;9.25;;;;;;;-2.02;100.00;96943.84;1019762;29;20024;-49
2021/04/14 02:10:13;;;;;;;15.07;9.32;;;;;;;-2.01;100.00;96945.56;1023809;29;20020;-46
2021/04/14 02:10:44;;;;;;;11.55;9.68;;;;;;;-2.03;100.00;96944.69;1019550;29;20016;-48
2021/04/14 02:11:15;;;;;;;13.77;9.32;;;;;;;-2.03;100.00;96936.97;1011834;29;20361;-49
2021/04/14 02:11:46;;;;;;;12.15;9.35;;;;;;;-2.04;100.00;96940.44;1019703;29;20466;-52
2021/04/14 02:12:17;;;;;;;14.48;9.95;;;;;;;-2.03;100.00;96936.13;1015733;29;20260;-50
2021/04/14 02:12:47;;;;;;;11.60;9.70;;;;;;;-2.02;100.00;96938.69;1019608;29;20031;-50
2021/04/14 02:13:24;;;;;;;15.80;9.80;;;;;;;-2.04;100.00;96930.16;1027672;28;20015;-50
2021/04/14 02:13:54;;;;;;;12.52;9.96;;;;;;;-1.98;100.00;96936.97;1019603;29;20023;-49
2021/04/14 02:14:25;;;;;;;14.40;10.25;;;;;;;-1.99;100.00;96927.56;1015863;29;20032;-50
2021/04/14 02:14:56;;;;;;;14.07;10.20;;;;;;;-1.99;100.00;96937.81;1019550;29;20073;-51
2021/04/14 02:15:29;;;;;;;12.32;9.40;;;;;;;-1.99;100.00;96930.13;1015676;29;20048;-49
2021/04/14 02:16:00;;;;;;;12.12;9.62;;;;;;;-1.98;100.00;96932.69;1004258;29;20025;-48
2021/04/14 02:16:31;;;;;;;11.90;9.25;;;;;;;-2.00;100.00;96942.13;1011757;29;20020;-49
2021/04/14 02:17:01;;;;;;;11.90;9.02;;;;;;;-1.99;100.00;96927.56;1011691;29;20017;-48
2021/04/14 02:17:32;;;;;;;13.30;9.15;;;;;;;-1.98;100.00;96927.53;1011817;29;20043;-49
2021/04/14 02:18:03;;;;;;;11.48;9.50;;;;;;;-1.97;100.00;96929.28;1015765;29;20402;-49
2021/04/14 02:18:34;;;;;;;11.14;8.78;;;;;;;-1.98;100.00;96931.84;1007998;29;20021;-49
2021/04/14 02:19:05;;;;;;;12.75;8.80;;;;;;;-1.95;100.00;96929.28;1015557;29;20490;-50
2021/04/14 02:19:36;;;;;;;16.85;10.40;;;;;;;-1.97;100.00;96928.44;1011874;29;20040;-48
2021/04/14 02:20:07;;;;;;;13.50;9.35;;;;;;;-1.94;100.00;96932.69;1007978;29;20084;-51
2021/04/14 02:20:38;;;;;;;11.88;9.20;;;;;;;-1.91;100.00;96924.97;1004187;29;20081;-49
2021/04/14 02:21:09;;;;;;;14.93;9.88;;;;;;;-1.92;100.00;96924.09;1007882;29;20814;-50
2021/04/14 02:21:39;;;;;;;13.77;9.45;;;;;;;-1.92;100.00;96930.94;1004118;29;20028;-49
2021/04/14 02:22:10;;;;;;;12.25;9.00;;;;;;;-1.91;100.00;96935.25;1011735;29;20037;-49
2021/04/14 02:22:42;;;;;;;12.15;9.18;;;;;;;-1.90;100.00;96929.22;1011801;29;20056;-48
2021/04/14 02:23:16;;;;;;;12.42;9.20;;;;;;;-1.88;100.00;96925.78;1004064;29;20085;-48
2021/04/14 02:23:47;;;;;;;11.26;8.36;;;;;;;-1.85;100.00;96927.50;1011633;29;20510;-48
2021/04/14 02:24:18;;;;;;;10.65;8.25;;;;;;;-1.83;100.00;96921.47;1011835;29;20055;-49
2021/04/14 02:24:49;;;;;;;12.93;9.10;;;;;;;-1.82;100.00;96925.75;1015906;29;20055;-50
2021/04/14 02:25:20;;;;;;;13.02;9.25;;;;;;;-1.80;100.00;96925.75;1015707;29;20020;-49
2021/04/14 02:25:54;;;;;;;15.57;9.45;;;;;;;-1.83;100.00;96929.19;1019668;29;20027;-51